Time;durP1;ratioP1;P1;durP2;ratioP2;P2;SDS_P1;SDS_P2;PMS_P1;PMS_P2;Temp;Humidity;BMP_temperature;BMP_pressure;BME280_temperature;BME280_humidity;BME280_pressure;Samples;Min_cycle;Max_cycle;Signal;HPM_P1;HPM_P2
2022/03/29 00:01:58;;;;;;;6.75;4.30;;;10.20;96.70;;;;;;5084081;28;20024;-76
2022/03/29 00:04:24;;;;;;;6.35;3.90;;;10.20;96.40;;;;;;5090514;28;20024;-76
2022/03/29 00:06:50;;;;;;;7.38;3.80;;;10.20;96.70;;;;;;5090107;28;20032;-76
2022/03/29 00:09:17;;;;;;;5.88;3.55;;;10.30;96.90;;;;;;5090898;28;20024;-76
2022/03/29 00:11:43;;;;;;;5.55;3.90;;;10.30;96.60;;;;;;5091947;28;20490;-76
2022/03/29 00:14:10;;;;;;;8.15;4.45;;;10.20;96.60;;;;;;5092518;28;20135;-76
2022/03/29 00:16:37;;;;;;;7.15;4.03;;;10.30;96.60;;;;;;5085975;28;20500;-76
2022/03/29 00:19:02;;;;;;;5.80;4.30;;;10.30;97.20;;;;;;5082881;28;20016;-76
2022/03/29 00:21:28;;;;;;;5.75;3.97;;;10.30;97.30;;;;;;5090121;28;20376;-76
2022/03/29 00:23:54;;;;;;;9.80;4.13;;;10.20;97.30;;;;;;5072428;28;20382;-76
2022/03/29 00:26:20;;;;;;;7.72;3.55;;;10.20;97.80;;;;;;5087736;28;20051;-76
2022/03/29 00:28:47;;;;;;;5.65;4.07;;;10.20;98.00;;;;;;5080642;28;20020;-76
2022/03/29 00:31:16;;;;;;;5.25;3.90;;;10.10;98.10;;;;;;5071003;28;20078;-76
2022/03/29 00:33:42;;;;;;;5.20;4.13;;;10.20;97.70;;;;;;5078249;28;20020;-76
2022/03/29 00:36:08;;;;;;;5.35;3.75;;;10.10;97.90;;;;;;5086298;28;20040;-76
2022/03/29 00:38:34;;;;;;;7.63;4.40;;;10.10;97.80;;;;;;5088044;28;20024;-76
2022/03/29 00:41:00;;;;;;;8.45;4.78;;;10.00;98.70;;;;;;5091756;28;20429;-76
2022/03/29 00:43:26;;;;;;;5.40;4.13;;;10.00;98.70;;;;;;5081870;28;20024;-76
2022/03/29 00:45:52;;;;;;;8.40;4.82;;;10.00;98.90;;;;;;5090977;28;20031;-76
2022/03/29 00:48:18;;;;;;;6.10;4.03;;;9.70;99.20;;;;;;5089664;28;20425;-76
2022/03/29 00:50:44;;;;;;;4.35;3.15;;;9.90;98.80;;;;;;5089195;28;20481;-76
2022/03/29 00:53:10;;;;;;;6.63;4.32;;;9.90;98.20;;;;;;5072975;28;20426;-76
2022/03/29 00:55:38;;;;;;;5.60;3.63;;;9.90;98.50;;;;;;5085656;28;20157;-76
2022/03/29 00:58:06;;;;;;;5.22;3.50;;;9.90;98.70;;;;;;5089966;28;20097;-76
2022/03/29 01:00:35;;;;;;;3.95;3.55;;;9.90;98.60;;;;;;5082186;28;20025;-76
2022/03/29 01:03:03;;;;;;;5.75;3.75;;;9.80;98.60;;;;;;5070511;28;20055;-76
2022/03/29 01:05:32;;;;;;;6.88;3.72;;;9.70;98.70;;;;;;5071937;28;20182;-76
2022/03/29 01:07:58;;;;;;;6.93;4.38;;;9.80;98.30;;;;;;5088790;28;20031;-76
2022/03/29 01:10:25;;;;;;;6.53;3.65;;;9.80;98.60;;;;;;5090047;28;20049;-76
2022/03/29 01:12:52;;;;;;;6.68;3.70;;;9.80;98.30;;;;;;5090206;28;20019;-76
2022/03/29 01:15:19;;;;;;;5.75;4.10;;;9.50;98.90;;;;;;5084120;28;20040;-76
2022/03/29 01:17:46;;;;;;;6.20;3.70;;;9.70;98.80;;;;;;5086787;28;20145;-76
2022/03/29 01:20:24;;;;;;;5.75;3.92;;;9.60;99.70;;;;;;5085338;28;20043;-76
2022/03/29 01:22:52;;;;;;;5.68;3.70;;;9.30;99.90;;;;;;5080058;28;20102;-76
2022/03/29 01:25:23;;;;;;;8.05;3.75;;;9.40;99.90;;;;;;5084581;28;20036;-76
2022/03/29 01:27:50;;;;;;;;;;;9.30;99.90;;;;;;5089321;28;20034;-76
2022/03/29 01:30:17;;;;;;;7.28;3.92;;;9.40;99.90;;;;;;5090214;28;19908;-76
2022/03/29 01:32:47;;;;;;;7.15;4.07;;;9.30;99.90;;;;;;5090182;28;20016;-76
2022/03/29 01:35:16;;;;;;;6.40;4.00;;;9.30;99.90;;;;;;5090701;28;20012;-76
2022/03/29 01:37:41;;;;;;;7.90;3.80;;;9.30;99.90;;;;;;5083474;28;20032;-76
2022/03/29 01:40:12;;;;;;;5.70;3.60;;;9.50;99.90;;;;;;5087254;28;20045;-76
2022/03/29 01:42:41;;;;;;;4.25;3.25;;;9.50;99.80;;;;;;5089504;28;20027;-76
2022/03/29 01:45:07;;;;;;;5.63;3.75;;;9.50;99.60;;;;;;5089060;28;20027;-76
2022/03/29 01:47:33;;;;;;;4.32;3.10;;;9.40;99.80;;;;;;5070604;28;20017;-76
2022/03/29 01:49:59;;;;;;;5.88;4.10;;;9.40;99.90;;;;;;5090185;28;20448;-76
2022/03/29 01:52:25;;;;;;;5.28;3.25;;;9.30;99.90;;;;;;5081535;28;20038;-77
2022/03/29 01:54:51;;;;;;;4.88;3.45;;;9.30;99.90;;;;;;5071728;28;20071;-76
2022/03/29 01:57:17;;;;;;;5.20;3.70;;;9.20;99.90;;;;;;5083862;28;20051;-76
2022/03/29 02:02:27;;;;;;;5.72;3.45;;;9.10;99.90;;;;;;5087903;28;20043;-77
2022/03/29 02:04:53;;;;;;;6.03;4.00;;;9.00;99.90;;;;;;5088736;28;20413;-76
2022/03/29 02:07:19;;;;;;;6.85;3.80;;;9.00;99.90;;;;;;5077873;28;20036;-76
2022/03/29 02:09:45;;;;;;;5.55;3.42;;;8.90;99.90;;;;;;5077410;28;20028;-76
2022/03/29 02:12:12;;;;;;;4.97;3.63;;;8.90;99.90;;;;;;5069272;28;20493;-76
2022/03/29 02:14:38;;;;;;;6.55;3.90;;;8.90;99.90;;;;;;5085896;28;20051;-76
2022/03/29 02:17:05;;;;;;;5.13;3.83;;;8.90;99.90;;;;;;5070832;28;20585;-76
2022/03/29 02:19:31;;;;;;;5.70;3.78;;;8.90;99.90;;;;;;5077392;28;20028;-77
2022/03/29 02:21:57;;;;;;;8.50;3.92;;;8.90;99.90;;;;;;5085726;28;20383;-76
2022/03/29 02:24:23;;;;;;;7.45;4.22;;;8.80;99.90;;;;;;5076260;28;20028;-76
2022/03/29 02:26:49;;;;;;;8.50;4.95;;;8.80;99.90;;;;;;5073334;28;20100;-76
2022/03/29 02:29:15;;;;;;;6.25;4.75;;;8.80;99.90;;;;;;5089203;28;20097;-76
2022/03/29 02:31:40;;;;;;;6.97;4.50;;;8.80;99.90;;;;;;5089534;28;20566;-76
2022/03/29 02:34:06;;;;;;;7.65;4.50;;;8.80;99.90;;;;;;5082978;28;20025;-76
2022/03/29 02:36:32;;;;;;;8.65;4.28;;;8.80;99.90;;;;;;5077269;28;20023;-76
2022/03/29 02:38:57;;;;;;;6.93;3.65;;;8.90;99.90;;;;;;5085447;28;20025;-76
2022/03/29 02:41:23;;;;;;;8.77;4.57;;;8.90;99.90;;;;;;5086263;28;20024;-76
2022/03/29 02:43:49;;;;;;;6.40;3.97;;;8.80;99.90;;;;;;5088635;28;20060;-76
2022/03/29 02:46:14;;;;;;;8.40;4.65;;;8.80;99.90;;;;;;5091328;28;20367;-76
2022/03/29 02:48:40;;;;;;;6.95;4.82;;;8.50;99.90;;;;;;5083970;28;20017;-76
2022/03/29 02:51:06;;;;;;;8.93;4.35;;;8.70;99.90;;;;;;5092009;28;20032;-76
2022/03/29 02:53:32;;;;;;;7.35;4.03;;;8.60;99.90;;;;;;5073353;28;20379;-76
2022/03/29 02:55:58;;;;;;;6.30;3.90;;;8.60;99.90;;;;;;5088184;28;20032;-76
2022/03/29 02:58:24;;;;;;;8.20;5.28;;;8.50;99.90;;;;;;5092937;28;20028;-77
2022/03/29 03:00:51;;;;;;;8.45;4.30;;;8.50;99.90;;;;;;5092562;28;20449;-76
2022/03/29 03:03:17;;;;;;;6.65;4.15;;;8.50;99.90;;;;;;5092736;28;20024;-76
2022/03/29 03:05:43;;;;;;;7.10;4.68;;;8.50;99.90;;;;;;5092093;28;20024;-76
2022/03/29 03:08:09;;;;;;;6.15;4.20;;;8.40;99.90;;;;;;5093763;28;20439;-76
2022/03/29 03:10:34;;;;;;;11.07;4.30;;;8.40;99.90;;;;;;5091370;28;20491;-76
2022/03/29 03:13:00;;;;;;;9.95;4.80;;;8.40;99.90;;;;;;5084458;28;20031;-76
2022/03/29 03:15:26;;;;;;;6.20;3.92;;;8.40;99.90;;;;;;5087921;28;20024;-76
2022/03/29 03:17:53;;;;;;;5.10;3.88;;;8.40;99.90;;;;;;5090541;28;20393;-76
2022/03/29 03:20:19;;;;;;;6.75;4.28;;;8.40;99.90;;;;;;5094296;28;20024;-76
2022/03/29 03:22:44;;;;;;;7.35;4.20;;;8.40;99.90;;;;;;5083214;28;20021;-76
2022/03/29 03:25:11;;;;;;;5.97;4.00;;;8.50;99.90;;;;;;5077598;28;20107;-76
2022/03/29 03:27:38;;;;;;;5.97;3.65;;;8.50;99.90;;;;;;5090388;28;20119;-76
2022/03/29 03:30:05;;;;;;;7.32;4.25;;;8.50;99.90;;;;;;5091822;28;20016;-76
2022/03/29 03:32:31;;;;;;;6.80;4.10;;;8.50;99.90;;;;;;5093297;28;20028;-76
2022/03/29 03:34:57;;;;;;;5.00;3.97;;;8.40;99.90;;;;;;5093002;28;20102;-76
2022/03/29 03:37:24;;;;;;;7.10;4.38;;;8.40;99.90;;;;;;5091718;28;20517;-76
2022/03/29 03:39:50;;;;;;;9.90;4.03;;;8.40;99.90;;;;;;5091162;28;20027;-76
2022/03/29 03:42:15;;;;;;;6.00;3.80;;;8.40;99.90;;;;;;5092204;28;20481;-76
2022/03/29 03:44:41;;;;;;;6.13;4.00;;;8.40;99.90;;;;;;5090287;28;20434;-76
2022/03/29 03:47:10;;;;;;;4.97;3.72;;;8.40;99.90;;;;;;5092792;28;20032;-76
2022/03/29 03:49:37;;;;;;;6.82;4.57;;;8.20;99.90;;;;;;5091707;28;20035;-75
2022/03/29 03:52:04;;;;;;;5.15;3.85;;;8.20;99.90;;;;;;5083202;28;20024;-76
2022/03/29 03:54:30;;;;;;;6.53;3.83;;;8.30;99.90;;;;;;5091994;28;20028;-75
2022/03/29 03:56:55;;;;;;;6.70;4.18;;;8.30;99.90;;;;;;5090751;28;20032;-75
2022/03/29 03:59:23;;;;;;;5.93;3.95;;;8.40;99.90;;;;;;5093302;28;20058;-76
2022/03/29 04:01:48;;;;;;;10.70;4.15;;;8.40;99.90;;;;;;5091510;28;20051;-76
2022/03/29 04:04:14;;;;;;;6.57;3.85;;;8.40;99.90;;;;;;5082952;28;20449;-76
2022/03/29 04:06:40;;;;;;;5.93;3.80;;;8.40;99.90;;;;;;5091687;28;20089;-76
2022/03/29 04:09:06;;;;;;;7.25;3.75;;;8.30;99.90;;;;;;5091462;28;20024;-77
2022/03/29 04:11:32;;;;;;;5.85;4.10;;;8.40;99.90;;;;;;5092316;28;20020;-77
2022/03/29 04:13:58;;;;;;;7.32;4.10;;;8.40;99.90;;;;;;5092115;28;20378;-76
2022/03/29 04:16:25;;;;;;;6.88;3.92;;;8.40;99.90;;;;;;5091712;28;20070;-77
2022/03/29 04:18:51;;;;;;;8.05;4.57;;;8.30;99.90;;;;;;5088054;28;20060;-76
2022/03/29 04:21:17;;;;;;;6.20;4.15;;;8.30;99.90;;;;;;5075742;28;20077;-76
2022/03/29 04:23:43;;;;;;;6.53;4.68;;;8.30;99.90;;;;;;5075096;28;20028;-77
2022/03/29 04:26:09;;;;;;;7.15;4.45;;;8.30;99.90;;;;;;5073369;28;20025;-77
2022/03/29 04:28:34;;;;;;;9.27;5.35;;;8.30;99.90;;;;;;5085636;28;20455;-76
2022/03/29 04:31:00;;;;;;;8.52;4.90;;;8.30;99.90;;;;;;5086325;28;20024;-76
2022/03/29 04:33:27;;;;;;;9.70;4.93;;;8.40;99.90;;;;;;5078393;28;20412;-76
2022/03/29 04:35:53;;;;;;;9.23;5.57;;;8.20;99.90;;;;;;5090723;28;20081;-76
2022/03/29 04:38:19;;;;;;;7.75;4.50;;;8.10;99.90;;;;;;5073398;28;20113;-76
2022/03/29 04:40:45;;;;;;;10.82;5.18;;;8.10;99.90;;;;;;5076365;28;20039;-76
2022/03/29 04:43:11;;;;;;;7.65;5.32;;;8.20;99.90;;;;;;5076285;28;20020;-76
2022/03/29 04:45:37;;;;;;;6.97;4.13;;;8.30;99.90;;;;;;5088257;28;20409;-76
2022/03/29 04:48:03;;;;;;;8.82;4.57;;;8.20;99.90;;;;;;5090521;28;20020;-78
2022/03/29 04:50:29;;;;;;;7.70;4.47;;;8.40;99.90;;;;;;5092877;28;20020;-77
2022/03/29 04:52:55;;;;;;;6.38;4.07;;;8.30;99.90;;;;;;5090483;28;20032;-77
2022/03/29 04:55:21;;;;;;;8.52;4.95;;;8.20;99.90;;;;;;5088172;28;20134;-77
2022/03/29 04:57:49;;;;;;;8.27;4.93;;;8.10;99.90;;;;;;5088819;28;20073;-77
2022/03/29 05:00:20;;;;;;;6.75;4.68;;;7.90;99.90;;;;;;5089462;28;20292;-77
2022/03/29 05:02:46;;;;;;;6.93;4.38;;;7.90;99.90;;;;;;5090414;28;20036;-78
2022/03/29 05:05:13;;;;;;;6.43;4.00;;;8.00;99.90;;;;;;5078329;28;20025;-78
2022/03/29 05:07:42;;;;;;;7.13;4.45;;;8.20;99.90;;;;;;5087964;28;20028;-77
2022/03/29 05:10:09;;;;;;;6.57;4.03;;;8.10;99.90;;;;;;5084567;28;20111;-76
2022/03/29 05:12:42;;;;;;;7.35;4.93;;;8.20;99.90;;;;;;5088576;28;20027;-78
2022/03/29 05:15:09;;;;;;;7.35;4.75;;;8.10;99.90;;;;;;5090413;28;20104;-78
2022/03/29 05:17:35;;;;;;;7.13;4.22;;;8.20;99.90;;;;;;5090799;28;20031;-80
2022/03/29 05:20:02;;;;;;;5.90;4.60;;;8.30;99.90;;;;;;5090969;28;20513;-80
2022/03/29 05:22:28;;;;;;;8.25;4.45;;;8.30;99.90;;;;;;5083253;28;20044;-78
2022/03/29 05:24:54;;;;;;;4.93;3.63;;;8.40;99.90;;;;;;5079819;28;20423;-78
2022/03/29 05:27:19;;;;;;;6.90;4.35;;;8.40;99.90;;;;;;5089830;28;20498;-78
2022/03/29 05:29:45;;;;;;;7.25;3.97;;;8.40;99.90;;;;;;5090431;28;20104;-78
2022/03/29 05:32:11;;;;;;;7.18;4.35;;;8.40;99.90;;;;;;5091474;28;20600;-77
2022/03/29 05:34:37;;;;;;;7.20;4.68;;;8.40;99.90;;;;;;5081227;28;20546;-77
2022/03/29 05:37:02;;;;;;;5.13;3.50;;;8.40;99.90;;;;;;5084279;28;20028;-81
2022/03/29 05:39:28;;;;;;;7.93;4.07;;;8.50;99.90;;;;;;5077323;28;20016;-80
2022/03/29 05:41:54;;;;;;;7.85;4.20;;;8.50;99.90;;;;;;5089887;28;20064;-80
2022/03/29 05:44:19;;;;;;;8.38;4.35;;;8.40;99.90;;;;;;5091417;28;20034;-80
2022/03/29 05:49:30;;;;;;;8.00;4.47;;;8.50;99.90;;;;;;5089538;28;20043;-79
2022/03/29 05:51:56;;;;;;;7.75;4.38;;;8.60;99.90;;;;;;5087451;28;20012;-79
2022/03/29 05:54:22;;;;;;;8.27;4.97;;;8.60;99.90;;;;;;5089563;28;20478;-80
2022/03/29 05:56:49;;;;;;;5.93;4.40;;;8.60;99.90;;;;;;5089514;28;20028;-80
2022/03/29 05:59:15;;;;;;;6.57;4.07;;;8.60;99.90;;;;;;5091245;28;20024;-80
2022/03/29 06:01:41;;;;;;;6.25;3.80;;;8.70;99.90;;;;;;5089150;28;20161;-79
2022/03/29 06:04:09;;;;;;;6.65;4.25;;;8.70;99.90;;;;;;5080676;28;20084;-80
2022/03/29 06:06:37;;;;;;;6.38;4.45;;;8.60;99.90;;;;;;5079570;28;20419;-80
2022/03/29 06:09:03;;;;;;;9.10;4.10;;;8.60;99.90;;;;;;5087519;28;20012;-79
2022/03/29 06:11:29;;;;;;;6.30;3.97;;;8.70;99.90;;;;;;5073786;28;20025;-80
2022/03/29 06:13:54;;;;;;;7.30;4.43;;;8.70;99.90;;;;;;5088628;28;20016;-80
2022/03/29 06:16:23;;;;;;;6.25;4.50;;;8.70;99.90;;;;;;5089260;28;20065;-78
2022/03/29 06:18:48;;;;;;;7.47;4.95;;;8.80;99.90;;;;;;5089609;28;20020;-80
2022/03/29 06:21:16;;;;;;;9.52;4.70;;;8.70;99.90;;;;;;5087573;28;20026;-79
2022/03/29 06:23:42;;;;;;;5.93;4.68;;;8.50;99.90;;;;;;5071984;28;20025;-80
2022/03/29 06:26:08;;;;;;;8.00;5.00;;;8.40;99.90;;;;;;5090605;28;20032;-80
2022/03/29 06:28:35;;;;;;;8.38;4.10;;;8.60;99.90;;;;;;5080110;28;20028;-80
2022/03/29 06:31:01;;;;;;;7.95;4.45;;;8.60;99.90;;;;;;5081008;28;20489;-80
2022/03/29 06:33:27;;;;;;;8.13;5.10;;;8.70;99.90;;;;;;5086708;28;20027;-80
2022/03/29 06:35:52;;;;;;;7.97;4.60;;;8.70;99.90;;;;;;5089241;28;20024;-80
2022/03/29 06:38:21;;;;;;;5.90;4.10;;;8.80;99.90;;;;;;5090619;28;20028;-80
2022/03/29 06:40:48;;;;;;;8.43;4.22;;;9.00;99.90;;;;;;5080623;28;20020;-79
2022/03/29 06:43:14;;;;;;;7.03;4.30;;;9.30;99.90;;;;;;5083360;28;20027;-78
2022/03/29 06:45:40;;;;;;;8.25;4.50;;;9.60;99.90;;;;;;5080346;28;20032;-78
2022/03/29 06:48:07;;;;;;;7.97;4.95;;;9.70;99.90;;;;;;5088528;28;20034;-78
2022/03/29 06:50:34;;;;;;;8.25;4.95;;;9.90;99.90;;;;;;5089715;28;20478;-80
2022/03/29 06:53:00;;;;;;;6.93;4.10;;;9.90;99.90;;;;;;5081955;28;20589;-80
2022/03/29 06:55:27;;;;;;;6.82;4.90;;;10.00;99.90;;;;;;5080227;28;20131;-78
2022/03/29 06:57:53;;;;;;;8.70;4.03;;;10.10;99.90;;;;;;5084554;28;20024;-77
2022/03/29 07:00:20;;;;;;;6.22;4.30;;;10.10;99.90;;;;;;5075633;28;20089;-78
2022/03/29 07:02:46;;;;;;;9.38;4.45;;;10.20;99.90;;;;;;5069452;28;20073;-80
2022/03/29 07:05:12;;;;;;;6.90;3.88;;;10.20;99.90;;;;;;5082968;28;20043;-80
2022/03/29 07:07:38;;;;;;;6.78;4.60;;;10.20;99.90;;;;;;5086366;28;20024;-80
2022/03/29 07:12:56;;;;;;;4.90;3.45;;;10.30;99.90;;;;;;5078229;28;20452;-78
2022/03/29 07:15:22;;;;;;;5.82;3.55;;;10.50;99.90;;;;;;5074263;28;20027;-78
2022/03/29 07:17:48;;;;;;;6.05;3.38;;;10.50;99.90;;;;;;5087720;28;20046;-80
2022/03/29 07:20:19;;;;;;;5.22;4.45;;;10.50;99.90;;;;;;5079335;28;20487;-77
2022/03/29 07:22:47;;;;;;;5.10;3.78;;;10.40;99.90;;;;;;5078418;28;20029;-78
2022/03/29 07:25:14;;;;;;;5.35;3.80;;;10.50;99.90;;;;;;5074194;28;20035;-78
2022/03/29 07:27:40;;;;;;;7.68;4.72;;;10.50;99.90;;;;;;5080005;28;20024;-78
2022/03/29 07:30:07;;;;;;;7.13;3.92;;;10.60;99.90;;;;;;5087697;28;20031;-78
2022/03/29 07:32:41;;;;;;;4.88;4.00;;;10.70;99.90;;;;;;5070839;28;20012;-78
2022/03/29 07:35:07;;;;;;;5.53;3.80;;;10.70;99.90;;;;;;5086571;28;20493;-78
2022/03/29 07:37:33;;;;;;;5.85;3.38;;;10.80;99.90;;;;;;5091657;28;20031;-78
2022/03/29 07:39:59;;;;;;;7.25;3.83;;;10.90;99.90;;;;;;5092165;28;20024;-78
2022/03/29 07:42:25;;;;;;;6.38;4.82;;;10.90;99.90;;;;;;5092472;28;20051;-78
2022/03/29 07:44:51;;;;;;;6.53;4.10;;;11.00;99.90;;;;;;5091795;28;20028;-78
2022/03/29 07:47:19;;;;;;;5.43;3.97;;;11.10;99.90;;;;;;5087111;28;20024;-80
2022/03/29 07:49:46;;;;;;;7.60;4.45;;;11.10;99.90;;;;;;5076437;28;20040;-78
2022/03/29 07:52:14;;;;;;;8.20;4.05;;;11.10;99.90;;;;;;5085502;28;20016;-78
2022/03/29 07:54:40;;;;;;;8.80;4.38;;;11.10;99.90;;;;;;5087770;28;20043;-78
2022/03/29 07:57:08;;;;;;;8.32;4.72;;;11.20;99.90;;;;;;5090385;28;20728;-78
2022/03/29 07:59:35;;;;;;;9.07;4.60;;;11.20;99.90;;;;;;5092673;28;20028;-78
2022/03/29 08:02:01;;;;;;;5.50;4.22;;;11.20;99.90;;;;;;5084787;28;20027;-78
2022/03/29 08:04:27;;;;;;;5.97;3.83;;;11.30;99.90;;;;;;5091732;28;20563;-78
2022/03/29 08:06:52;;;;;;;10.43;4.95;;;11.30;99.90;;;;;;5091183;28;20024;-78
2022/03/29 08:09:18;;;;;;;10.00;4.50;;;11.50;99.90;;;;;;5087211;28;20055;-78
2022/03/29 08:11:44;;;;;;;7.10;4.18;;;11.50;99.90;;;;;;5089797;28;20493;-78
2022/03/29 08:14:12;;;;;;;6.57;3.95;;;11.60;99.90;;;;;;5078237;28;20074;-78
2022/03/29 08:16:38;;;;;;;6.00;4.30;;;11.70;99.90;;;;;;5082954;28;20024;-78
2022/03/29 08:19:04;;;;;;;8.02;4.45;;;11.80;99.90;;;;;;5091572;28;20513;-78
2022/03/29 08:21:49;;;;;;;6.68;4.18;;;11.80;99.90;;;;;;5091303;28;20017;-78
2022/03/29 08:24:18;;;;;;;7.75;4.18;;;12.00;99.90;;;;;;5075790;28;20051;-78
2022/03/29 08:26:45;;;;;;;7.93;4.45;;;12.10;99.90;;;;;;5091920;28;20099;-78
2022/03/29 08:29:12;;;;;;;6.20;4.47;;;12.20;99.90;;;;;;5092764;28;20024;-79
2022/03/29 08:31:39;;;;;;;8.77;4.20;;;12.30;99.90;;;;;;5089850;28;20024;-78
2022/03/29 08:34:06;;;;;;;9.35;4.78;;;12.40;99.90;;;;;;5082446;28;20028;-78
2022/03/29 08:36:32;;;;;;;8.05;5.13;;;12.50;99.90;;;;;;5083088;28;20103;-78
2022/03/29 08:38:57;;;;;;;9.05;5.40;;;12.50;99.90;;;;;;5087398;28;20558;-78
2022/03/29 08:41:29;;;;;;;6.32;4.93;;;12.60;99.90;;;;;;5087533;28;20051;-78
2022/03/29 08:43:54;;;;;;;;;;;12.80;99.90;;;;;;5090819;28;20032;-78
2022/03/29 08:46:21;;;;;;;7.85;5.45;;;12.80;99.90;;;;;;5090171;28;19945;-78
2022/03/29 08:48:49;;;;;;;11.13;5.40;;;13.00;99.90;;;;;;5090550;28;20024;-78
2022/03/29 08:51:16;;;;;;;11.60;6.00;;;13.10;99.90;;;;;;5091064;28;20074;-78
2022/03/29 08:53:45;;;;;;;7.07;5.57;;;13.30;99.90;;;;;;5090827;28;20070;-78
2022/03/29 08:56:11;;;;;;;9.15;5.85;;;13.40;99.90;;;;;;5090893;28;20036;-78
2022/03/29 08:58:36;;;;;;;7.68;5.70;;;13.50;99.90;;;;;;5089773;28;20024;-78
2022/03/29 09:01:02;;;;;;;15.63;6.43;;;13.60;99.90;;;;;;5085138;28;20039;-78
2022/03/29 09:03:28;;;;;;;7.72;5.47;;;13.60;99.90;;;;;;5088455;28;20028;-78
2022/03/29 09:06:10;;;;;;;10.57;6.18;;;13.70;99.90;;;;;;5090931;28;20497;-78
2022/03/29 09:08:46;;;;;;;9.13;5.75;;;13.90;99.90;;;;;;5090427;28;20016;-79
2022/03/29 09:11:13;;;;;;;11.00;6.13;;;14.00;99.90;;;;;;5085867;28;20024;-79
2022/03/29 09:13:40;;;;;;;11.75;6.10;;;14.00;99.90;;;;;;5079784;28;20557;-79
2022/03/29 09:16:09;;;;;;;11.25;6.40;;;14.00;99.90;;;;;;5077065;28;20127;-79
2022/03/29 09:18:35;;;;;;;10.07;6.68;;;14.30;99.90;;;;;;5089597;28;20012;-79
2022/03/29 09:21:15;;;;;;;11.23;6.45;;;14.30;99.90;;;;;;5089058;28;20035;-78
2022/03/29 09:23:43;;;;;;;13.32;7.00;;;14.50;99.90;;;;;;5074969;28;20027;-79
2022/03/29 09:26:26;;;;;;;11.70;7.03;;;14.90;99.90;;;;;;5091637;28;20032;-79
2022/03/29 09:28:52;;;;;;;9.80;5.57;;;14.80;99.90;;;;;;5089770;28;20377;-79
2022/03/29 09:31:22;;;;;;;13.55;6.25;;;14.70;99.90;;;;;;5089845;28;20024;-79
2022/03/29 09:33:48;;;;;;;10.68;5.90;;;14.70;99.90;;;;;;5089889;28;20096;-79
2022/03/29 09:36:20;;;;;;;11.32;6.82;;;14.80;99.90;;;;;;5088790;28;20031;-79
2022/03/29 09:38:47;;;;;;;11.30;6.28;;;15.00;99.90;;;;;;5088906;28;20024;-79
2022/03/29 09:41:27;;;;;;;7.95;6.50;;;15.20;99.90;;;;;;5091853;28;20028;-79
2022/03/29 09:44:16;;;;;;;13.40;6.32;;;15.10;99.60;;;;;;5081758;28;20028;-79
2022/03/29 09:47:04;;;;;;;10.93;6.85;;;15.10;99.90;;;;;;5080060;28;20036;-79
2022/03/29 09:49:30;;;;;;;10.38;6.07;;;15.00;99.10;;;;;;5089236;28;20050;-79
2022/03/29 09:52:17;;;;;;;9.38;6.13;;;15.10;99.30;;;;;;5079853;28;20074;-79
2022/03/29 09:55:07;;;;;;;10.88;6.53;;;15.30;99.60;;;;;;5079942;28;20119;-79
2022/03/29 09:57:37;;;;;;;9.95;6.90;;;15.30;99.30;;;;;;5088821;28;20031;-79
2022/03/29 10:00:05;;;;;;;11.23;6.05;;;15.40;99.20;;;;;;5087271;28;20409;-79
2022/03/29 10:02:40;;;;;;;9.00;6.28;;;15.50;99.70;;;;;;5091626;28;20024;-78
2022/03/29 10:05:09;;;;;;;12.35;7.13;;;15.60;99.60;;;;;;5083605;28;20127;-78
2022/03/29 10:07:42;;;;;;;6.70;5.97;;;15.60;98.80;;;;;;5088630;28;20059;-78
2022/03/29 10:10:09;;;;;;;11.95;6.07;;;15.70;99.00;;;;;;5089456;28;20059;-78
2022/03/29 10:12:35;;;;;;;11.27;6.35;;;15.60;98.60;;;;;;5088021;28;20047;-78
2022/03/29 10:15:02;;;;;;;10.75;6.57;;;15.70;98.90;;;;;;5072860;28;20030;-78
2022/03/29 10:17:28;;;;;;;13.40;6.85;;;15.80;99.20;;;;;;5089710;28;20024;-78
2022/03/29 10:19:56;;;;;;;10.60;6.32;;;16.00;98.50;;;;;;5089276;28;20032;-78
2022/03/29 10:22:22;;;;;;;10.57;6.55;;;16.20;98.00;;;;;;5082556;28;20052;-78
2022/03/29 10:24:48;;;;;;;10.57;6.45;;;16.20;98.60;;;;;;5079440;28;20561;-78
2022/03/29 10:27:17;;;;;;;9.63;6.80;;;16.10;97.60;;;;;;5089571;28;20020;-78
2022/03/29 10:29:43;;;;;;;13.27;7.38;;;15.80;98.00;;;;;;5089579;28;20028;-78
2022/03/29 10:32:10;;;;;;;9.60;6.65;;;15.90;97.80;;;;;;5089424;28;20508;-78
2022/03/29 10:34:40;;;;;;;8.18;6.47;;;16.10;98.00;;;;;;5088127;28;20044;-78
2022/03/29 10:37:16;;;;;;;9.70;6.07;;;16.10;97.80;;;;;;5088864;28;20028;-78
2022/03/29 10:39:59;;;;;;;11.27;6.57;;;16.00;97.80;;;;;;5088780;28;20054;-78
2022/03/29 10:42:37;;;;;;;12.13;6.40;;;16.00;97.70;;;;;;5082512;28;20024;-78
2022/03/29 10:45:09;;;;;;;12.93;6.38;;;16.00;98.00;;;;;;5071106;28;20024;-78
2022/03/29 10:47:35;;;;;;;;;;;15.90;97.10;;;;;;5090460;28;20051;-78
2022/03/29 10:50:02;;;;;;;12.35;6.57;;;16.00;98.00;;;;;;5076876;28;19952;-78
2022/03/29 10:52:35;;;;;;;14.40;7.63;;;16.10;98.00;;;;;;5079191;28;20553;-78
2022/03/29 10:55:28;;;;;;;12.55;6.95;;;16.00;97.70;;;;;;5083945;28;20040;-78
2022/03/29 10:58:12;;;;;;;11.90;7.13;;;15.90;97.40;;;;;;5080012;28;20024;-78
2022/03/29 11:00:43;;;;;;;11.48;6.50;;;15.90;97.60;;;;;;5088664;28;20032;-78
2022/03/29 11:03:23;;;;;;;10.80;6.13;;;15.90;97.30;;;;;;5084183;28;20036;-78
2022/03/29 11:06:08;;;;;;;11.65;6.53;;;15.90;98.00;;;;;;5087418;28;20099;-78
2022/03/29 11:08:35;;;;;;;15.63;6.63;;;15.90;98.20;;;;;;5093839;28;20028;-78
2022/03/29 11:11:02;;;;;;;9.13;6.32;;;15.80;98.00;;;;;;5093776;28;20023;-78
2022/03/29 11:13:46;;;;;;;8.10;5.80;;;15.80;97.70;;;;;;5091313;28;20032;-78
2022/03/29 11:16:30;;;;;;;11.10;5.95;;;16.10;97.70;;;;;;5084058;28;20035;-78
2022/03/29 11:18:57;;;;;;;8.50;6.05;;;16.10;97.30;;;;;;5092292;28;20052;-79
2022/03/29 11:21:35;;;;;;;10.48;5.93;;;16.20;98.30;;;;;;5091462;28;20145;-78
2022/03/29 11:24:03;;;;;;;12.10;6.93;;;16.30;97.40;;;;;;5075715;28;20102;-78
2022/03/29 11:26:29;;;;;;;11.18;6.97;;;16.10;97.30;;;;;;5094635;28;20085;-78
2022/03/29 11:28:57;;;;;;;13.70;6.90;;;16.30;97.60;;;;;;5086414;28;20031;-78
2022/03/29 11:31:31;;;;;;;14.90;7.53;;;16.10;96.60;;;;;;5091373;28;20027;-78
2022/03/29 11:33:57;;;;;;;10.75;6.32;;;16.10;96.20;;;;;;5086340;28;20016;-78
2022/03/29 11:36:22;;;;;;;9.93;6.30;;;16.30;96.80;;;;;;5087571;28;20432;-78
2022/03/29 11:38:48;;;;;;;11.65;6.88;;;16.60;96.40;;;;;;5090220;28;20024;-78
2022/03/29 11:41:25;;;;;;;14.70;6.65;;;16.50;96.80;;;;;;5092059;28;20028;-78
2022/03/29 11:44:03;;;;;;;14.70;6.85;;;16.50;95.60;;;;;;5092076;28;20021;-78
2022/03/29 11:46:43;;;;;;;14.93;7.32;;;16.60;95.60;;;;;;5091788;28;20036;-78
2022/03/29 11:49:09;;;;;;;16.98;8.15;;;16.90;95.40;;;;;;5092107;28;20032;-78
2022/03/29 11:51:35;;;;;;;18.92;7.40;;;16.70;95.40;;;;;;5083313;28;20067;-78
2022/03/29 11:54:01;;;;;;;12.90;6.70;;;16.90;95.40;;;;;;5075808;28;20078;-78
2022/03/29 11:56:27;;;;;;;13.52;6.63;;;17.00;95.00;;;;;;5093938;28;20534;-78
2022/03/29 11:58:54;;;;;;;15.60;6.70;;;17.10;94.70;;;;;;5090630;28;20560;-78
2022/03/29 12:01:28;;;;;;;9.23;6.80;;;17.20;96.20;;;;;;5084068;28;20024;-78
2022/03/29 12:03:56;;;;;;;9.73;6.18;;;17.20;94.70;;;;;;5074119;28;20031;-78
2022/03/29 12:06:23;;;;;;;15.10;6.28;;;17.40;94.70;;;;;;5085009;28;20081;-78
2022/03/29 12:08:56;;;;;;;13.32;7.03;;;17.60;94.70;;;;;;5087778;28;20020;-78
2022/03/29 12:11:28;;;;;;;15.52;6.95;;;17.70;94.20;;;;;;5086816;28;20020;-78
2022/03/29 12:14:32;;;;;;;17.27;7.28;;;17.50;93.30;;;;;;5082763;28;20111;-78
2022/03/29 12:17:03;;;;;;;14.13;6.93;;;17.40;94.40;;;;;;5027346;28;20079;-78
2022/03/29 12:19:33;;;;;;;13.10;7.22;;;17.60;94.50;;;;;;5004238;28;20037;-78
2022/03/29 12:22:09;;;;;;;20.02;6.85;;;17.70;94.00;;;;;;5014738;28;20044;-78
2022/03/29 12:24:40;;;;;;;14.07;6.65;;;17.90;94.10;;;;;;5013818;28;20013;-78
2022/03/29 12:27:08;;;;;;;13.95;6.93;;;17.90;94.10;;;;;;5025647;28;20025;-78
2022/03/29 12:29:46;;;;;;;15.77;7.00;;;17.70;93.40;;;;;;5029680;28;20021;-78
2022/03/29 12:32:13;;;;;;;20.85;6.68;;;17.60;92.90;;;;;;5010910;28;20025;-78
2022/03/29 12:34:39;;;;;;;17.85;6.30;;;17.50;93.30;;;;;;5021648;28;20042;-78
2022/03/29 12:37:12;;;;;;;15.95;6.63;;;17.60;93.20;;;;;;5025033;28;20056;-78
2022/03/29 12:39:40;;;;;;;14.85;6.90;;;17.40;92.70;;;;;;5024188;28;20026;-78
2022/03/29 12:42:16;;;;;;;15.68;6.15;;;17.30;92.90;;;;;;5011281;28;20062;-78
2022/03/29 12:44:55;;;;;;;17.95;7.03;;;17.60;93.10;;;;;;5027564;28;20033;-78
2022/03/29 12:47:23;;;;;;;19.63;6.38;;;17.70;92.10;;;;;;5044500;28;20052;-78
2022/03/29 12:49:51;;;;;;;15.57;5.97;;;17.70;92.10;;;;;;5078056;28;20025;-78
2022/03/29 12:52:18;;;;;;;8.38;5.45;;;17.80;93.70;;;;;;5085177;28;20039;-78
2022/03/29 12:54:49;;;;;;;13.60;5.88;;;17.80;93.20;;;;;;5088076;28;20051;-78
2022/03/29 12:57:16;;;;;;;;;;;18.10;93.60;;;;;;5089541;28;20028;-78
2022/03/29 12:59:45;;;;;;;12.65;5.78;;;18.10;92.70;;;;;;5090980;28;19983;-78
2022/03/29 13:02:19;;;;;;;14.13;6.03;;;18.10;92.90;;;;;;5074393;28;20013;-78
2022/03/29 13:04:52;;;;;;;15.07;6.53;;;18.20;93.70;;;;;;5079992;28;20137;-78